Terminal Aerodrome Forecast
Issued by NWS

Home | Current Version | Previous Version | Text Only | Print | Product List | Glossary On
Versions: 1 2 3 4 5 6 7 8 9 10 11 12 13 14 15 16 17
000
FTUS46 KOTX 292320
TAFSFF
TAF
KSFF 292320Z 3000/3024 24012G19KT P6SM SCT060 BKN100
     FM300200 20006KT P6SM OVC070
     FM300600 20006KT P6SM VCSH SCT040 OVC060
     FM301000 22009KT P6SM -RA SCT025 OVC050
     FM301600 23012KT P6SM SCT025 BKN060
     FM302100 24015G21KT P6SM BKN060=

USA.gov is the U.S. government's official web portal to all federal, state and local government web resources and services.